createdAt,value
2023-05-17T00:01:08.047Z,68.10
2023-05-17T00:04:11.206Z,68.15
2023-05-17T00:07:14.388Z,68.14
2023-05-17T00:10:17.499Z,68.16
2023-05-17T00:13:20.731Z,68.29
2023-05-17T00:16:23.805Z,68.20
2023-05-17T00:19:26.980Z,68.27
2023-05-17T00:22:30.116Z,68.20
2023-05-17T00:25:33.139Z,68.28
2023-05-17T00:28:36.217Z,68.38
2023-05-17T00:31:39.213Z,68.37
2023-05-17T00:34:42.346Z,68.35
2023-05-17T00:37:48.103Z,68.42
2023-05-17T00:40:51.351Z,68.45
2023-05-17T00:43:54.618Z,68.52
2023-05-17T00:46:59.860Z,68.45
2023-05-17T00:50:03.711Z,68.51
2023-05-17T00:53:07.069Z,68.57
2023-05-17T00:56:10.168Z,68.50
2023-05-17T00:59:14.221Z,68.54
2023-05-17T01:02:18.016Z,68.71
2023-05-17T01:05:21.188Z,68.73
2023-05-17T01:08:24.374Z,68.75
2023-05-17T01:11:39.492Z,68.68
2023-05-17T01:14:52.226Z,68.87
2023-05-17T01:18:12.954Z,68.81
2023-05-17T01:21:45.183Z,68.87
2023-05-17T01:24:54.561Z,68.93
2023-05-17T01:28:00.358Z,68.84
2023-05-17T01:31:03.999Z,68.87
2023-05-17T01:34:10.584Z,68.92
2023-05-17T01:37:13.654Z,68.96
2023-05-17T01:40:18.361Z,68.98
2023-05-17T01:43:35.806Z,68.90
2023-05-17T01:46:43.051Z,69.01
2023-05-17T01:49:51.929Z,68.90
2023-05-17T01:52:59.725Z,69.02
2023-05-17T01:56:12.105Z,69.00
2023-05-17T01:59:24.211Z,69.10
2023-05-17T02:02:27.400Z,68.97
2023-05-17T02:05:30.641Z,68.98
2023-05-17T02:08:33.890Z,69.15
2023-05-17T02:11:37.243Z,69.12
2023-05-17T02:14:40.445Z,69.05
2023-05-17T02:17:43.612Z,68.92
2023-05-17T02:20:46.698Z,68.99
2023-05-17T02:23:51.174Z,68.97
2023-05-17T02:26:55.942Z,69.03
2023-05-17T02:30:02.130Z,68.92
2023-05-17T02:33:05.465Z,69.15
2023-05-17T02:36:08.977Z,69.08
2023-05-17T02:39:12.043Z,68.98
2023-05-17T02:42:15.153Z,69.06
2023-05-17T02:45:18.421Z,69.12
2023-05-17T02:48:22.082Z,69.02
2023-05-17T02:51:25.383Z,69.04
2023-05-17T02:54:28.425Z,69.11
2023-05-17T02:57:32.884Z,69.03
2023-05-17T03:00:36.012Z,69.06
2023-05-17T03:03:39.137Z,69.09
2023-05-17T03:06:42.534Z,69.15
2023-05-17T03:09:45.939Z,69.08
2023-05-17T03:12:49.191Z,69.12
2023-05-17T03:15:54.771Z,69.01
2023-05-17T03:18:58.344Z,69.01
2023-05-17T03:22:01.738Z,69.08
2023-05-17T03:25:06.849Z,68.97
2023-05-17T03:28:10.154Z,69.00
2023-05-17T03:31:13.378Z,69.03
2023-05-17T03:34:16.604Z,69.00
2023-05-17T03:37:19.684Z,69.05
2023-05-17T03:40:23.257Z,69.09
2023-05-17T03:43:26.464Z,69.01
2023-05-17T03:46:29.666Z,68.99
2023-05-17T03:49:33.106Z,68.98
2023-05-17T03:52:36.882Z,68.93
2023-05-17T03:55:40.084Z,69.15
2023-05-17T03:58:43.512Z,69.04
2023-05-17T04:01:47.148Z,68.98
2023-05-17T04:04:51.278Z,68.87
2023-05-17T04:07:54.694Z,68.93
2023-05-17T04:10:57.799Z,68.92
2023-05-17T04:14:00.970Z,68.90
2023-05-17T04:17:04.283Z,68.85
2023-05-17T04:20:07.811Z,68.91
2023-05-17T04:23:11.350Z,68.83
2023-05-17T04:26:15.084Z,68.88
2023-05-17T04:29:19.182Z,68.88
2023-05-17T04:32:23.010Z,68.99
2023-05-17T04:35:26.426Z,68.97
2023-05-17T04:38:30.540Z,68.86
2023-05-17T04:41:33.742Z,68.96
2023-05-17T04:44:38.444Z,68.99
2023-05-17T04:47:41.800Z,68.86
2023-05-17T04:50:46.380Z,69.06
2023-05-17T04:53:49.561Z,68.92
2023-05-17T04:56:53.765Z,68.95
2023-05-17T05:00:15.680Z,68.91
2023-05-17T05:03:23.016Z,68.99
2023-05-17T05:06:26.366Z,68.89
2023-05-17T05:09:29.766Z,69.02
2023-05-17T05:12:33.116Z,68.98
2023-05-17T05:15:36.210Z,68.87
2023-05-17T05:18:40.315Z,68.83
2023-05-17T05:21:46.432Z,68.79
2023-05-17T05:24:49.931Z,68.83
2023-05-17T05:27:53.376Z,68.87
2023-05-17T05:31:02.693Z,68.80
2023-05-17T05:34:11.580Z,68.88
2023-05-17T05:37:16.199Z,68.95
2023-05-17T05:40:21.491Z,69.51
2023-05-17T05:43:24.733Z,69.30
2023-05-17T05:46:27.948Z,69.19
2023-05-17T05:49:31.127Z,69.11
2023-05-17T05:52:34.292Z,69.12
2023-05-17T05:55:41.220Z,69.01
2023-05-17T05:58:45.192Z,69.07
2023-05-17T06:01:48.482Z,68.95
2023-05-17T06:04:51.487Z,68.86
2023-05-17T06:07:54.536Z,68.91
2023-05-17T06:10:57.782Z,68.74
2023-05-17T06:14:01.191Z,68.68
2023-05-17T06:17:04.963Z,68.69
2023-05-17T06:20:09.613Z,68.58
2023-05-17T06:23:13.689Z,68.62
2023-05-17T06:26:17.015Z,68.38
2023-05-17T06:29:20.237Z,68.55
2023-05-17T06:32:23.330Z,68.34
2023-05-17T06:35:26.718Z,68.33
2023-05-17T06:38:29.837Z,68.28
2023-05-17T06:41:32.969Z,68.27
2023-05-17T06:44:36.090Z,68.21
2023-05-17T06:47:39.835Z,68.17
2023-05-17T06:50:43.112Z,68.11
2023-05-17T06:53:46.180Z,68.10
2023-05-17T06:56:49.184Z,68.01
2023-05-17T06:59:52.436Z,67.93
2023-05-17T07:02:55.788Z,68.06
2023-05-17T07:05:59.001Z,67.97
2023-05-17T07:09:02.231Z,68.02
2023-05-17T07:12:06.189Z,68.05
2023-05-17T07:15:09.760Z,68.04
2023-05-17T07:18:12.948Z,68.06
2023-05-17T07:21:17.474Z,68.05
2023-05-17T07:24:21.735Z,67.93
2023-05-17T07:27:27.331Z,67.96
2023-05-17T07:30:30.503Z,68.06
2023-05-17T07:33:33.618Z,68.01
2023-05-17T07:36:36.981Z,68.13
2023-05-17T07:39:42.239Z,68.13
2023-05-17T07:43:25.060Z,68.19
2023-05-17T07:46:26.981Z,68.16
2023-05-17T07:49:30.216Z,68.10
2023-05-17T07:52:32.306Z,68.16
2023-05-17T07:55:35.866Z,68.28
2023-05-17T07:58:37.702Z,68.27
2023-05-17T08:01:39.520Z,68.25
2023-05-17T08:04:44.662Z,68.29
2023-05-17T08:07:46.497Z,68.29
2023-05-17T08:10:49.168Z,68.28
2023-05-17T08:13:50.949Z,68.31
2023-05-17T08:16:52.849Z,68.33
2023-05-17T08:19:54.727Z,68.25
2023-05-17T08:22:56.705Z,68.19
2023-05-17T08:25:58.735Z,68.10
2023-05-17T08:29:04.191Z,68.10
2023-05-17T08:32:07.642Z,68.14
2023-05-17T08:35:13.008Z,68.16
2023-05-17T08:38:14.903Z,68.20
2023-05-17T08:41:16.722Z,68.09
2023-05-17T08:44:20.148Z,68.00
2023-05-17T08:47:29.128Z,68.04
2023-05-17T08:50:34.265Z,68.05
2023-05-17T08:53:36.190Z,68.12
2023-05-17T08:56:42.051Z,67.98
2023-05-17T08:59:49.995Z,68.10
2023-05-17T09:02:51.899Z,68.17
2023-05-17T09:05:57.446Z,68.17
2023-05-17T09:09:04.497Z,68.25
2023-05-17T09:12:09.519Z,68.23
2023-05-17T09:15:20.309Z,68.21
2023-05-17T09:18:34.965Z,68.32
2023-05-17T09:21:37.145Z,68.34
2023-05-17T09:24:40.848Z,68.47
2023-05-17T09:27:42.868Z,68.43
2023-05-17T09:30:47.720Z,68.35
2023-05-17T09:33:50.153Z,68.29
2023-05-17T09:36:54.021Z,68.20
2023-05-17T09:39:56.058Z,68.07
2023-05-17T09:42:58.993Z,68.05
2023-05-17T09:46:00.869Z,67.99
2023-05-17T09:49:03.454Z,68.10
2023-05-17T09:52:07.687Z,68.14
2023-05-17T09:55:11.277Z,68.14
2023-05-17T09:58:13.580Z,68.16
2023-05-17T10:01:16.001Z,68.00
2023-05-17T10:04:22.693Z,67.94
2023-05-17T10:07:26.105Z,67.90
2023-05-17T10:10:30.575Z,67.96
2023-05-17T10:14:05.947Z,67.99
2023-05-17T10:17:09.281Z,68.03
2023-05-17T10:20:13.114Z,68.02
2023-05-17T10:23:16.363Z,68.15
2023-05-17T10:26:20.219Z,68.11
2023-05-17T10:29:22.936Z,68.12
2023-05-17T10:32:26.943Z,68.19
2023-05-17T10:35:30.467Z,68.07
2023-05-17T10:38:41.914Z,68.32
2023-05-17T10:41:47.273Z,68.18
2023-05-17T10:44:49.539Z,68.22
2023-05-17T10:47:52.897Z,68.21
2023-05-17T10:54:17.743Z,68.32
2023-05-17T10:57:49.211Z,68.37
2023-05-17T11:00:55.276Z,68.38
2023-05-17T11:03:57.897Z,68.19
2023-05-17T11:07:28.507Z,68.22
2023-05-17T11:10:31.102Z,68.39
2023-05-17T11:13:33.035Z,68.26
2023-05-17T11:16:36.887Z,68.22
2023-05-17T11:19:38.879Z,68.26
2023-05-17T11:23:04.806Z,68.38
2023-05-17T11:26:31.377Z,68.30
2023-05-17T11:29:33.894Z,68.22
2023-05-17T11:32:35.928Z,68.15
2023-05-17T11:35:39.061Z,68.16
2023-05-17T11:38:41.034Z,68.09
2023-05-17T11:41:50.936Z,68.04
2023-05-17T11:44:56.534Z,67.87
2023-05-17T11:47:58.651Z,67.88
2023-05-17T11:51:02.487Z,68.10
2023-05-17T11:54:06.643Z,68.04
2023-05-17T11:57:10.646Z,67.87
2023-05-17T12:00:13.452Z,67.86
2023-05-17T12:03:16.496Z,67.83
2023-05-17T12:06:18.507Z,67.86
2023-05-17T12:09:22.557Z,67.89
2023-05-17T12:12:25.432Z,67.65
2023-05-17T12:15:30.013Z,67.57
2023-05-17T12:18:37.116Z,67.37
2023-05-17T12:21:39.062Z,67.40
2023-05-17T12:24:42.545Z,67.51
2023-05-17T12:27:44.401Z,67.52
2023-05-17T12:30:51.213Z,67.43
2023-05-17T12:33:53.963Z,67.63
2023-05-17T12:36:56.198Z,67.57
2023-05-17T12:40:01.193Z,67.63
2023-05-17T12:43:03.629Z,67.80
2023-05-17T12:46:12.421Z,67.82
2023-05-17T12:49:14.452Z,67.79
2023-05-17T12:52:17.988Z,67.76
2023-05-17T12:55:19.735Z,67.83
2023-05-17T12:58:21.573Z,67.80
2023-05-17T13:01:23.441Z,67.71
2023-05-17T13:04:33.640Z,67.88
2023-05-17T13:07:35.835Z,67.75
2023-05-17T13:10:37.604Z,67.93
2023-05-17T13:13:40.147Z,67.85
2023-05-17T13:16:42.160Z,68.01
2023-05-17T13:19:44.122Z,68.02
2023-05-17T13:22:46.610Z,67.94
2023-05-17T13:25:48.536Z,67.99
2023-05-17T13:28:50.674Z,68.07
2023-05-17T13:31:52.526Z,68.08
2023-05-17T13:34:54.645Z,68.00
2023-05-17T13:37:57.297Z,68.07
2023-05-17T13:40:59.101Z,68.19
2023-05-17T13:44:01.090Z,68.00
2023-05-17T13:47:03.198Z,68.15
2023-05-17T13:50:05.672Z,68.10
2023-05-17T13:53:08.113Z,68.32
2023-05-17T13:56:10.337Z,68.37
2023-05-17T13:59:12.243Z,68.38
2023-05-17T14:02:14.662Z,68.26
2023-05-17T14:05:17.495Z,68.35
2023-05-17T14:08:19.720Z,68.37
2023-05-17T14:11:21.531Z,68.25
2023-05-17T14:14:25.493Z,68.26
2023-05-17T14:17:28.132Z,68.46
2023-05-17T14:20:30.681Z,68.51
2023-05-17T14:23:34.092Z,68.43
2023-05-17T14:26:36.569Z,68.48
2023-05-17T14:29:38.358Z,68.50
2023-05-17T14:32:40.881Z,68.62
2023-05-17T14:35:42.682Z,68.63
2023-05-17T14:38:44.355Z,68.72
2023-05-17T14:41:46.139Z,68.60
2023-05-17T14:44:47.853Z,68.59
2023-05-17T14:47:49.648Z,68.62
2023-05-17T14:50:52.670Z,68.66
2023-05-17T14:53:54.429Z,68.77
2023-05-17T14:56:56.710Z,68.82
2023-05-17T14:59:59.721Z,68.70
2023-05-17T15:03:01.818Z,68.74
2023-05-17T15:06:07.486Z,68.89
2023-05-17T15:09:13.544Z,68.86
2023-05-17T15:12:15.432Z,68.98
2023-05-17T15:15:17.373Z,68.92
2023-05-17T15:18:19.896Z,68.91
2023-05-17T15:21:21.777Z,69.00
2023-05-17T15:24:23.652Z,69.01
2023-05-17T15:27:25.540Z,69.10
2023-05-17T15:30:27.581Z,69.05
2023-05-17T15:33:30.389Z,69.09
2023-05-17T15:36:32.207Z,69.10
2023-05-17T15:39:37.546Z,69.02
2023-05-17T15:42:39.839Z,69.06
2023-05-17T15:45:41.687Z,69.08
2023-05-17T15:48:43.868Z,69.19
2023-05-17T15:51:46.213Z,69.25
2023-05-17T15:54:49.644Z,69.29
2023-05-17T15:57:51.488Z,69.36
2023-05-17T16:00:54.472Z,69.40
2023-05-17T16:03:56.340Z,69.42
2023-05-17T16:06:58.180Z,69.66
2023-05-17T16:09:59.905Z,69.59
2023-05-17T16:13:02.910Z,69.64
2023-05-17T16:16:05.198Z,69.75
2023-05-17T16:19:07.027Z,69.66
2023-05-17T16:22:09.021Z,69.73
2023-05-17T16:25:12.277Z,69.74
2023-05-17T16:28:14.008Z,69.67
2023-05-17T16:31:15.951Z,69.67
2023-05-17T16:34:17.912Z,69.76
2023-05-17T16:37:19.613Z,69.76
2023-05-17T16:40:21.430Z,69.74
2023-05-17T16:43:23.194Z,69.72
2023-05-17T16:46:25.771Z,69.69
2023-05-17T16:49:29.559Z,69.71
2023-05-17T16:52:31.482Z,69.82
2023-05-17T16:55:35.484Z,69.83
2023-05-17T16:58:37.345Z,69.89
2023-05-17T17:01:39.539Z,69.88
2023-05-17T17:04:41.158Z,69.87
2023-05-17T17:07:45.232Z,69.89
2023-05-17T17:10:46.986Z,69.98
2023-05-17T17:13:49.633Z,69.87
2023-05-17T17:16:51.378Z,69.89
2023-05-17T17:19:53.071Z,69.82
2023-05-17T17:22:55.376Z,69.94
2023-05-17T17:25:57.039Z,69.92
2023-05-17T17:28:59.351Z,69.91
2023-05-17T17:32:01.884Z,69.95
2023-05-17T17:35:04.028Z,69.92
2023-05-17T17:38:06.054Z,69.92
2023-05-17T17:41:09.241Z,69.98
2023-05-17T17:44:11.210Z,69.99
2023-05-17T17:47:13.206Z,70.01
2023-05-17T17:50:15.043Z,69.87
2023-05-17T17:53:16.816Z,69.93
2023-05-17T17:56:18.967Z,69.90
2023-05-17T17:59:21.017Z,69.94
2023-05-17T18:02:22.713Z,69.96
2023-05-17T18:05:25.536Z,69.99
2023-05-17T18:08:27.373Z,70.00
2023-05-17T18:11:29.075Z,69.85
2023-05-17T18:14:30.888Z,69.93
2023-05-17T18:17:32.809Z,69.98
2023-05-17T18:20:34.859Z,70.01
2023-05-17T18:23:37.341Z,69.93
2023-05-17T18:26:39.474Z,69.75
2023-05-17T18:29:41.710Z,69.82
2023-05-17T18:32:43.744Z,69.84
2023-05-17T18:35:45.674Z,69.72
2023-05-17T18:38:47.445Z,69.89
2023-05-17T18:41:49.170Z,69.72
2023-05-17T18:44:50.950Z,69.81
2023-05-17T18:47:52.758Z,69.87
2023-05-17T18:50:56.736Z,69.84
2023-05-17T18:53:58.449Z,69.70
2023-05-17T18:57:00.182Z,69.70
2023-05-17T19:00:02.057Z,69.79
2023-05-17T19:03:03.968Z,69.66
2023-05-17T19:06:05.787Z,69.63
2023-05-17T19:09:07.929Z,69.69
2023-05-17T19:12:09.784Z,69.63
2023-05-17T19:15:11.681Z,69.61
2023-05-17T19:18:13.496Z,69.59
2023-05-17T19:21:15.459Z,69.65
2023-05-17T19:24:17.260Z,69.63
2023-05-17T19:27:19.125Z,69.56
2023-05-17T19:30:20.882Z,69.72
2023-05-17T19:33:23.231Z,69.75
2023-05-17T19:36:25.359Z,69.75
2023-05-17T19:39:27.141Z,69.77
2023-05-17T19:42:28.930Z,69.68
2023-05-17T19:45:30.655Z,69.66
2023-05-17T19:48:32.400Z,69.61
2023-05-17T19:51:34.422Z,69.60
2023-05-17T19:54:36.221Z,69.59
2023-05-17T19:57:38.053Z,69.54
2023-05-17T20:00:39.756Z,69.47
2023-05-17T20:03:41.710Z,69.53
2023-05-17T20:06:43.793Z,69.59
2023-05-17T20:09:45.691Z,69.59
2023-05-17T20:12:47.567Z,69.46
2023-05-17T20:15:49.344Z,69.48
2023-05-17T20:18:51.117Z,69.51
2023-05-17T20:21:53.027Z,69.60
2023-05-17T20:24:57.105Z,69.58
2023-05-17T20:27:59.636Z,69.69
2023-05-17T20:31:01.891Z,69.61
2023-05-17T20:34:04.341Z,69.62
2023-05-17T20:37:06.101Z,69.67
2023-05-17T20:40:09.231Z,69.55
2023-05-17T20:43:11.042Z,69.57
2023-05-17T20:46:13.411Z,69.65
2023-05-17T20:49:16.309Z,69.68
2023-05-17T20:52:24.734Z,69.63
2023-05-17T20:55:39.646Z,69.79
2023-05-17T20:58:41.396Z,69.68
2023-05-17T21:01:43.548Z,69.75
2023-05-17T21:04:45.442Z,69.63
2023-05-17T21:07:49.880Z,69.65
2023-05-17T21:10:52.478Z,69.71
2023-05-17T21:13:54.492Z,69.73
2023-05-17T21:16:56.376Z,69.62
2023-05-17T21:19:58.153Z,69.56
2023-05-17T21:22:59.859Z,69.63
2023-05-17T21:26:01.759Z,69.57
2023-05-17T21:29:03.514Z,69.61
2023-05-17T21:32:05.512Z,69.62
2023-05-17T21:35:07.692Z,69.62
2023-05-17T21:38:09.393Z,69.61
2023-05-17T21:41:11.138Z,69.54
2023-05-17T21:44:12.918Z,69.67
2023-05-17T21:47:14.893Z,69.58
2023-05-17T21:50:16.943Z,69.52
2023-05-17T21:53:18.652Z,69.49
2023-05-17T21:56:21.121Z,69.50
2023-05-17T21:59:24.315Z,69.56
2023-05-17T22:02:26.250Z,69.51
2023-05-17T22:05:28.220Z,69.53
2023-05-17T22:08:31.460Z,69.56
2023-05-17T22:11:37.913Z,69.51
2023-05-17T22:14:42.706Z,69.53
2023-05-17T22:17:51.797Z,69.56
2023-05-17T22:20:54.617Z,69.57
2023-05-17T22:23:56.444Z,69.64
2023-05-17T22:26:58.215Z,69.65
2023-05-17T22:30:00.293Z,69.55
2023-05-17T22:33:02.422Z,69.52
2023-05-17T22:36:04.238Z,69.52
2023-05-17T22:39:05.892Z,69.52
2023-05-17T22:42:08.679Z,69.61
2023-05-17T22:45:14.193Z,69.60
2023-05-17T22:48:16.026Z,69.62
2023-05-17T22:51:18.044Z,69.56
2023-05-17T22:54:20.453Z,69.55
2023-05-17T22:57:22.157Z,69.58
2023-05-17T23:00:24.930Z,69.69
2023-05-17T23:03:26.652Z,69.47
2023-05-17T23:06:31.470Z,69.54
2023-05-17T23:09:33.163Z,69.42
2023-05-17T23:12:36.383Z,69.50
2023-05-17T23:15:38.718Z,69.53
2023-05-17T23:18:40.701Z,69.45
2023-05-17T23:21:42.988Z,69.56
2023-05-17T23:24:45.877Z,69.46
2023-05-17T23:27:48.461Z,69.50
2023-05-17T23:30:52.888Z,69.46
2023-05-17T23:33:54.606Z,69.39
2023-05-17T23:36:56.338Z,69.53
2023-05-17T23:39:58.712Z,69.45
2023-05-17T23:43:00.352Z,69.33
2023-05-17T23:46:02.736Z,69.26
2023-05-17T23:49:05.172Z,69.32
2023-05-17T23:52:10.564Z,69.36
2023-05-17T23:55:12.421Z,69.19
2023-05-17T23:58:14.156Z,69.28
